Time;durP1;ratioP1;P1;durP2;ratioP2;P2;SDS_P1;SDS_P2;PMS_P1;PMS_P2;Temp;Humidity;BMP_temperature;BMP_pressure;BME280_temperature;BME280_humidity;BME280_pressure;Samples;Min_cycle;Max_cycle;Signal;HPM_P1;HPM_P2
2023/01/17 00:02:01;;;;;;;0.70;0.70;;;4.60;99.90;;;;;;5049797;27;20977;-91
2023/01/17 00:10:08;;;;;;;0.70;0.70;;;4.50;99.90;;;;;;5065272;27;20051;-91
2023/01/17 00:12:34;;;;;;;0.70;0.70;;;4.50;99.90;;;;;;5036746;27;20043;-88
2023/01/17 00:15:03;;;;;;;0.70;0.70;;;4.60;99.90;;;;;;5049942;27;20400;-88
2023/01/17 00:17:29;;;;;;;0.70;0.70;;;4.60;99.90;;;;;;5032045;27;20498;-89
2023/01/17 01:35:54;;;;;;;0.80;0.80;;;4.30;99.90;;;;;;5065117;27;20463;-90
2023/01/17 01:38:31;;;;;;;0.70;0.70;;;4.30;99.90;;;;;;5036470;27;20040;-89
2023/01/17 01:41:02;;;;;;;0.80;0.80;;;4.20;99.90;;;;;;5045909;27;20727;-90
2023/01/17 01:43:37;;;;;;;0.70;0.70;;;4.10;99.90;;;;;;5049745;27;20383;-90
2023/01/17 01:46:07;;;;;;;0.77;0.77;;;4.10;99.90;;;;;;5050698;27;20497;-92
2023/01/17 01:48:35;;;;;;;0.70;0.70;;;4.10;99.90;;;;;;5037189;27;20150;-91
2023/01/17 01:51:15;;;;;;;0.70;0.70;;;4.00;99.90;;;;;;5041339;27;20070;-92
2023/01/17 01:53:45;;;;;;;0.70;0.70;;;4.00;99.90;;;;;;5054159;27;20427;-91
2023/01/17 01:56:14;;;;;;;0.80;0.80;;;4.00;99.90;;;;;;5052157;27;20420;-91
2023/01/17 01:58:44;;;;;;;0.70;0.70;;;3.90;99.90;;;;;;5044951;27;20575;-90
2023/01/17 02:01:11;;;;;;;0.70;0.70;;;4.00;99.90;;;;;;5048299;27;20145;-91
2023/01/17 02:03:40;;;;;;;0.70;0.70;;;4.00;99.90;;;;;;5033908;27;20578;-93
2023/01/17 02:06:27;;;;;;;0.70;0.70;;;3.90;99.90;;;;;;5042731;27;20058;-90
2023/01/17 02:08:54;;;;;;;0.77;0.77;;;3.90;99.90;;;;;;5045667;27;20070;-89
2023/01/17 02:11:21;;;;;;;0.80;0.80;;;3.80;99.90;;;;;;5038920;27;20112;-90
2023/01/17 02:13:49;;;;;;;0.77;0.77;;;3.90;99.90;;;;;;5062430;27;20099;-90
2023/01/17 02:16:21;;;;;;;0.80;0.80;;;3.90;99.90;;;;;;5018770;27;20045;-89
2023/01/17 02:19:03;;;;;;;0.80;0.80;;;3.90;99.90;;;;;;5040964;27;20462;-89
2023/01/17 02:21:48;;;;;;;0.80;0.80;;;3.80;99.90;;;;;;5040133;27;20047;-89
2023/01/17 02:24:36;;;;;;;0.75;0.75;;;3.80;99.90;;;;;;5039986;27;20461;-92
2023/01/17 02:27:15;;;;;;;0.70;0.70;;;3.80;99.90;;;;;;5061876;27;20047;-92
2023/01/17 02:30:03;;;;;;;0.80;0.80;;;3.80;99.90;;;;;;5061638;27;20384;-89
2023/01/17 02:33:05;;;;;;;0.80;0.80;;;3.80;99.90;;;;;;5062069;27;20564;-90
2023/01/17 02:35:38;;;;;;;0.73;0.73;;;3.80;99.90;;;;;;5061582;27;20465;-91
2023/01/17 02:38:19;;;;;;;0.73;0.73;;;3.70;99.90;;;;;;5045441;27;20039;-90
2023/01/17 02:41:00;;;;;;;0.80;0.80;;;3.50;99.90;;;;;;5047942;27;20109;-94
2023/01/17 02:43:26;;;;;;;0.80;0.80;;;3.40;99.90;;;;;;5051704;27;20047;-89
2023/01/17 02:45:52;;;;;;;0.80;0.80;;;3.40;99.90;;;;;;5055726;27;20043;-94
2023/01/17 02:48:28;;;;;;;0.80;0.80;;;3.30;99.90;;;;;;5046125;27;20689;-89
2023/01/17 02:51:14;;;;;;;0.80;0.80;;;3.40;99.90;;;;;;5042473;27;20967;-92
2023/01/17 02:54:07;;;;;;;0.75;0.75;;;3.40;99.90;;;;;;5040694;27;20055;-89
2023/01/17 02:56:55;;;;;;;0.80;0.80;;;3.30;99.90;;;;;;5037628;27;20492;-90
2023/01/17 02:59:39;;;;;;;0.80;0.80;;;3.40;99.90;;;;;;5044540;27;20813;-91
2023/01/17 03:02:27;;;;;;;0.80;0.80;;;3.30;99.90;;;;;;5043014;27;20039;-90
2023/01/17 03:05:09;;;;;;;0.80;0.80;;;3.40;99.90;;;;;;5042631;27;20077;-90
2023/01/17 03:07:38;;;;;;;0.80;0.80;;;3.30;99.90;;;;;;5059866;27;20045;-90
2023/01/17 03:10:06;;;;;;;0.80;0.80;;;3.40;99.90;;;;;;5044845;27;20330;-90
2023/01/17 03:12:35;;;;;;;0.77;0.77;;;3.40;99.90;;;;;;5051101;27;20311;-90
2023/01/17 03:15:01;;;;;;;0.80;0.80;;;3.40;99.90;;;;;;5038404;27;20085;-89
2023/01/17 03:17:34;;;;;;;0.80;0.80;;;3.40;99.90;;;;;;5033984;27;20134;-89
2023/01/17 03:20:05;;;;;;;0.80;0.80;;;3.40;99.90;;;;;;5050112;27;20039;-90
2023/01/17 03:22:34;;;;;;;0.80;0.80;;;3.30;99.90;;;;;;5034083;27;20488;-89
2023/01/17 03:25:00;;;;;;;0.80;0.80;;;3.30;99.90;;;;;;5053428;27;20586;-90
2023/01/17 03:27:25;;;;;;;0.80;0.80;;;3.40;99.90;;;;;;5038752;27;20089;-88
2023/01/17 03:29:54;;;;;;;0.80;0.80;;;3.40;99.90;;;;;;5016411;27;20351;-91
2023/01/17 03:32:20;;;;;;;0.80;0.80;;;3.30;99.90;;;;;;5025095;27;20096;-90
2023/01/17 03:34:49;;;;;;;0.80;0.80;;;3.40;99.90;;;;;;5035178;27;20086;-90
2023/01/17 03:37:16;;;;;;;0.80;0.80;;;3.30;99.90;;;;;;5032422;27;21031;-90
2023/01/17 03:39:41;;;;;;;0.80;0.80;;;3.30;99.90;;;;;;5030056;27;20562;-92
2023/01/17 03:42:10;;;;;;;0.80;0.80;;;3.40;99.90;;;;;;5012696;27;20082;-90
2023/01/17 03:44:36;;;;;;;0.80;0.80;;;3.30;99.90;;;;;;5031875;27;20381;-90
2023/01/17 03:47:04;;;;;;;0.70;0.70;;;3.30;99.90;;;;;;5038702;27;20122;-90
2023/01/17 03:49:35;;;;;;;0.75;0.75;;;3.20;99.90;;;;;;5030043;27;20467;-89
2023/01/17 03:52:01;;;;;;;0.80;0.80;;;3.30;99.90;;;;;;5037148;27;20051;-89
2023/01/17 03:54:27;;;;;;;0.80;0.80;;;3.20;99.90;;;;;;5013089;27;20365;-90
2023/01/17 03:56:53;;;;;;;0.70;0.70;;;3.30;99.90;;;;;;5031185;27;20123;-92
2023/01/17 03:59:21;;;;;;;0.80;0.80;;;3.20;99.90;;;;;;5017328;27;20043;-90
2023/01/17 04:01:49;;;;;;;0.77;0.77;;;3.10;99.90;;;;;;5044398;27;20546;-90
2023/01/17 04:04:15;;;;;;;0.80;0.80;;;3.20;99.90;;;;;;5025310;27;20392;-91
2023/01/17 04:06:41;;;;;;;0.73;0.73;;;3.20;99.90;;;;;;5018372;27;20047;-90
2023/01/17 04:09:07;;;;;;;0.80;0.80;;;3.10;99.90;;;;;;5030402;27;20086;-90
2023/01/17 04:11:33;;;;;;;0.80;0.80;;;3.00;99.90;;;;;;5041960;27;20428;-90
2023/01/17 04:13:59;;;;;;;0.80;0.80;;;3.10;99.90;;;;;;5045012;27;20054;-89
2023/01/17 04:16:28;;;;;;;0.80;0.80;;;3.10;99.90;;;;;;5037196;27;20043;-91
2023/01/17 04:18:57;;;;;;;0.80;0.80;;;3.10;99.90;;;;;;5042197;27;20832;-90
2023/01/17 04:21:23;;;;;;;0.80;0.80;;;3.00;99.90;;;;;;5050900;27;20492;-91
2023/01/17 04:24:00;;;;;;;0.80;0.80;;;3.10;99.90;;;;;;5043473;27;20074;-91
2023/01/17 04:26:26;;;;;;;0.80;0.80;;;3.10;99.90;;;;;;5046306;27;20039;-90
2023/01/17 04:28:52;;;;;;;0.80;0.80;;;3.00;99.90;;;;;;5015150;27;20495;-89
2023/01/17 04:31:18;;;;;;;0.80;0.80;;;3.00;99.90;;;;;;5028369;27;20131;-90
2023/01/17 04:33:43;;;;;;;0.80;0.80;;;2.90;99.90;;;;;;5029168;27;20051;-89
2023/01/17 04:36:12;;;;;;;0.85;0.85;;;2.90;99.90;;;;;;5029813;27;20176;-89
2023/01/17 04:38:38;;;;;;;0.80;0.80;;;2.90;99.90;;;;;;5053947;27;20891;-90
2023/01/17 04:41:06;;;;;;;0.80;0.80;;;2.80;99.90;;;;;;5030469;27;20054;-90
2023/01/17 04:43:34;;;;;;;0.80;0.80;;;2.70;99.90;;;;;;5029561;27;20374;-91
2023/01/17 04:46:02;;;;;;;0.80;0.80;;;2.70;99.90;;;;;;5038037;27;20393;-91
2023/01/17 04:48:32;;;;;;;0.80;0.80;;;2.90;99.90;;;;;;5037275;27;20077;-91
2023/01/17 04:51:04;;;;;;;0.82;0.82;;;2.70;99.90;;;;;;5026076;27;20069;-89
2023/01/17 04:53:31;;;;;;;0.90;0.90;;;2.70;99.90;;;;;;5043073;27;20188;-90
2023/01/17 04:55:57;;;;;;;0.80;0.80;;;2.70;99.90;;;;;;5044981;27;20948;-90
2023/01/17 04:58:30;;;;;;;0.80;0.80;;;2.60;99.90;;;;;;5018543;27;20035;-89
2023/01/17 05:01:04;;;;;;;0.80;0.80;;;2.60;99.90;;;;;;5045155;27;20043;-90
2023/01/17 05:03:36;;;;;;;0.90;0.90;;;2.70;99.90;;;;;;5037613;27;20043;-89
2023/01/17 05:06:01;;;;;;;0.80;0.80;;;2.70;99.90;;;;;;5055232;27;20558;-88
2023/01/17 05:08:27;;;;;;;0.90;0.90;;;2.60;99.90;;;;;;5024601;27;20047;-90
2023/01/17 05:10:53;;;;;;;0.80;0.80;;;2.50;99.90;;;;;;5031769;27;20043;-90
2023/01/17 05:13:19;;;;;;;0.82;0.82;;;2.50;99.90;;;;;;5037876;27;20042;-89
2023/01/17 05:15:45;;;;;;;0.90;0.90;;;2.30;99.90;;;;;;5034468;27;20121;-91
2023/01/17 05:18:13;;;;;;;0.90;0.90;;;2.30;99.90;;;;;;5040291;27;20065;-92
2023/01/17 05:20:51;;;;;;;0.82;0.82;;;2.20;99.90;;;;;;5042624;27;20116;-89
2023/01/17 05:23:19;;;;;;;0.80;0.80;;;2.30;99.90;;;;;;5039611;27;20310;-90
2023/01/17 05:25:47;;;;;;;0.80;0.80;;;2.40;99.90;;;;;;5040759;27;20039;-90
2023/01/17 05:28:13;;;;;;;0.85;0.85;;;2.40;99.90;;;;;;5029415;27;20143;-88
2023/01/17 05:30:39;;;;;;;0.82;0.82;;;2.20;99.90;;;;;;4999023;27;20850;-90
2023/01/17 05:33:09;;;;;;;0.90;0.90;;;2.30;99.90;;;;;;5022489;27;20150;-90
2023/01/17 05:35:37;;;;;;;0.90;0.90;;;2.30;99.90;;;;;;5044747;27;20035;-90
2023/01/17 05:38:04;;;;;;;0.90;0.90;;;2.30;99.90;;;;;;5000604;27;20534;-90
2023/01/17 05:40:31;;;;;;;0.90;0.90;;;2.30;99.90;;;;;;5030457;27;20044;-89
2023/01/17 05:42:59;;;;;;;0.88;0.88;;;2.20;99.90;;;;;;5034401;27;20040;-89
2023/01/17 05:45:27;;;;;;;0.80;0.80;;;2.20;99.90;;;;;;5028727;27;20047;-88
2023/01/17 05:47:54;;;;;;;0.90;0.90;;;2.10;99.90;;;;;;5009148;27;20401;-91
2023/01/17 05:50:33;;;;;;;0.80;0.80;;;2.20;99.90;;;;;;5029660;27;20035;-90
2023/01/17 05:53:01;;;;;;;0.90;0.90;;;2.10;99.90;;;;;;5032177;27;20355;-90
2023/01/17 05:55:29;;;;;;;0.80;0.80;;;2.10;99.90;;;;;;5048224;27;20134;-90
2023/01/17 05:57:57;;;;;;;0.85;0.85;;;2.20;99.90;;;;;;5029042;27;20286;-91
2023/01/17 06:00:31;;;;;;;0.80;0.80;;;2.00;99.90;;;;;;5030324;27;20527;-90
2023/01/17 06:02:59;;;;;;;0.90;0.90;;;1.90;99.90;;;;;;5031252;27;20051;-91
2023/01/17 06:05:28;;;;;;;0.90;0.90;;;1.90;99.90;;;;;;5021912;27;20039;-90
2023/01/17 06:08:14;;;;;;;0.90;0.90;;;1.90;99.90;;;;;;5046241;27;20049;-90
2023/01/17 06:10:43;;;;;;;0.80;0.80;;;1.80;99.90;;;;;;5024918;27;20073;-89
2023/01/17 06:13:14;;;;;;;0.90;0.90;;;1.80;99.90;;;;;;5016099;27;20063;-91
2023/01/17 06:15:40;;;;;;;0.80;0.80;;;1.90;99.90;;;;;;5046886;27;20051;-91
2023/01/17 06:18:11;;;;;;;0.90;0.90;;;1.90;99.90;;;;;;5045420;27;20054;-89
2023/01/17 06:20:37;;;;;;;0.90;0.90;;;2.00;99.90;;;;;;5035732;27;20476;-90
2023/01/17 06:23:05;;;;;;;0.90;0.90;;;1.80;99.90;;;;;;5030219;27;20062;-90
2023/01/17 06:25:39;;;;;;;0.90;0.90;;;1.90;99.90;;;;;;5029220;27;21690;-90
2023/01/17 06:28:16;;;;;;;0.90;0.90;;;1.80;99.90;;;;;;5029984;27;20055;-89
2023/01/17 06:30:42;;;;;;;0.90;0.90;;;1.70;99.90;;;;;;5043382;27;20047;-90
2023/01/17 06:33:11;;;;;;;0.90;0.90;;;1.60;99.90;;;;;;5058757;27;20043;-91
2023/01/17 06:35:39;;;;;;;0.90;0.90;;;1.70;99.90;;;;;;5033659;27;20043;-89
2023/01/17 06:38:06;;;;;;;0.90;0.90;;;1.80;99.90;;;;;;5031987;27;20039;-90
2023/01/17 06:40:32;;;;;;;0.80;0.80;;;1.80;99.90;;;;;;5046820;27;20371;-90
2023/01/17 06:43:00;;;;;;;0.90;0.90;;;1.90;99.90;;;;;;5036872;27;20047;-90
2023/01/17 06:45:28;;;;;;;0.90;0.90;;;1.80;99.90;;;;;;5032005;27;20073;-88
2023/01/17 06:47:55;;;;;;;0.90;0.90;;;1.90;99.90;;;;;;5020720;27;20051;-89
2023/01/17 06:50:27;;;;;;;0.90;0.90;;;1.90;99.90;;;;;;5036006;27;20043;-89
2023/01/17 06:53:02;;;;;;;0.85;0.85;;;1.90;99.90;;;;;;5037990;27;20047;-92
2023/01/17 06:55:38;;;;;;;0.80;0.80;;;1.90;99.90;;;;;;5055412;27;20127;-89
2023/01/17 06:58:07;;;;;;;0.90;0.90;;;1.80;99.90;;;;;;5029932;27;20131;-92
2023/01/17 07:00:35;;;;;;;0.90;0.90;;;1.80;99.90;;;;;;5019142;27;20168;-88
2023/01/17 07:03:02;;;;;;;0.90;0.90;;;2.10;99.90;;;;;;5035705;27;20039;-89
2023/01/17 07:05:28;;;;;;;0.90;0.90;;;2.10;99.90;;;;;;5056841;27;21043;-90
2023/01/17 07:07:56;;;;;;;0.90;0.90;;;2.10;99.90;;;;;;5032231;27;20158;-92
2023/01/17 07:10:22;;;;;;;0.90;0.90;;;2.10;99.90;;;;;;5036589;27;20158;-90
2023/01/17 07:12:48;;;;;;;0.90;0.90;;;2.10;99.90;;;;;;5040712;27;20388;-89
2023/01/17 07:15:14;;;;;;;0.90;0.90;;;1.90;99.90;;;;;;5041830;27;20089;-90
2023/01/17 07:17:39;;;;;;;0.90;0.90;;;1.90;99.90;;;;;;5032608;27;20553;-88
2023/01/17 07:20:06;;;;;;;0.88;0.88;;;1.90;99.90;;;;;;5031140;27;20043;-89
2023/01/17 07:22:32;;;;;;;0.90;0.90;;;1.90;99.90;;;;;;5054007;27;20829;-88
2023/01/17 07:24:57;;;;;;;0.80;0.80;;;1.90;99.90;;;;;;5054233;27;20107;-87
2023/01/17 07:27:29;;;;;;;0.80;0.80;;;1.80;99.90;;;;;;5010007;27;20351;-89
2023/01/17 07:29:57;;;;;;;0.82;0.82;;;1.80;99.90;;;;;;5062858;27;20458;-88
2023/01/17 07:32:27;;;;;;;0.80;0.80;;;1.80;99.90;;;;;;5055992;27;20050;-88
2023/01/17 07:34:56;;;;;;;0.80;0.80;;;1.70;99.90;;;;;;5060678;27;20392;-88
2023/01/17 07:37:22;;;;;;;0.90;0.90;;;1.70;99.90;;;;;;5031232;27;20034;-89
2023/01/17 07:39:48;;;;;;;0.90;0.90;;;1.50;99.90;;;;;;5029932;27;20099;-89
2023/01/17 07:42:14;;;;;;;0.90;0.90;;;1.70;99.90;;;;;;5040028;27;20050;-88
2023/01/17 07:44:42;;;;;;;0.90;0.90;;;1.70;99.90;;;;;;5052460;27;20078;-88
2023/01/17 07:47:08;;;;;;;0.80;0.80;;;1.60;99.90;;;;;;5045145;27;20563;-89
2023/01/17 07:49:34;;;;;;;0.90;0.90;;;1.60;99.90;;;;;;5044984;27;20057;-88
2023/01/17 07:52:00;;;;;;;0.80;0.80;;;1.70;99.90;;;;;;5034501;27;20039;-89
2023/01/17 07:54:29;;;;;;;0.80;0.80;;;1.60;99.90;;;;;;5012290;27;20053;-90
2023/01/17 07:56:54;;;;;;;0.90;0.90;;;1.50;99.90;;;;;;5039044;27;20355;-89
2023/01/17 07:59:20;;;;;;;0.85;0.85;;;1.40;99.90;;;;;;5015207;27;20043;-89
2023/01/17 08:01:46;;;;;;;0.90;0.90;;;1.50;99.90;;;;;;5056406;27;20150;-89
2023/01/17 08:04:13;;;;;;;0.90;0.90;;;1.70;99.90;;;;;;5019891;27;20427;-88
2023/01/17 08:06:46;;;;;;;0.90;0.90;;;1.60;99.90;;;;;;5030849;27;20039;-90
2023/01/17 08:09:12;;;;;;;0.90;0.90;;;1.70;99.90;;;;;;5042810;27;20046;-88
2023/01/17 08:11:38;;;;;;;0.90;0.90;;;2.00;99.90;;;;;;5048805;27;20093;-87
2023/01/17 08:14:03;;;;;;;0.90;0.90;;;2.00;99.90;;;;;;5019504;27;20150;-90
2023/01/17 08:16:29;;;;;;;0.90;0.90;;;2.20;99.90;;;;;;5033934;27;20753;-91
2023/01/17 08:18:55;;;;;;;0.90;0.90;;;2.20;99.90;;;;;;5010171;27;20129;-89
2023/01/17 08:21:24;;;;;;;0.90;0.90;;;2.00;99.90;;;;;;5040604;27;20523;-89
2023/01/17 08:23:51;;;;;;;0.90;0.90;;;2.00;99.90;;;;;;5048277;27;20043;-89
2023/01/17 08:26:21;;;;;;;0.80;0.80;;;2.10;99.90;;;;;;5041527;27;20060;-89
2023/01/17 08:28:53;;;;;;;0.80;0.80;;;2.00;99.90;;;;;;5023515;27;20411;-89
2023/01/17 08:31:19;;;;;;;0.90;0.90;;;2.00;99.90;;;;;;5040469;27;20089;-90
2023/01/17 08:33:45;;;;;;;0.85;0.85;;;1.80;99.90;;;;;;5023699;28;20473;-89
2023/01/17 08:36:11;;;;;;;0.90;0.90;;;1.90;99.90;;;;;;5040972;28;20043;-89
2023/01/17 08:38:39;;;;;;;0.90;0.90;;;2.20;99.90;;;;;;5013596;28;20567;-90
2023/01/17 08:41:05;;;;;;;0.90;0.90;;;2.30;99.90;;;;;;5022483;28;20154;-88
2023/01/17 08:43:31;;;;;;;0.90;0.90;;;2.30;99.90;;;;;;5045393;28;20075;-89
2023/01/17 08:45:57;;;;;;;0.80;0.80;;;2.20;99.90;;;;;;5023276;28;20035;-89
2023/01/17 08:48:23;;;;;;;0.80;0.80;;;2.20;99.90;;;;;;5020961;28;20433;-89
2023/01/17 08:50:48;;;;;;;0.90;0.90;;;2.30;99.90;;;;;;5038987;28;20043;-89
2023/01/17 08:53:15;;;;;;;0.90;0.90;;;2.30;99.90;;;;;;5024621;28;20051;-89
2023/01/17 08:55:43;;;;;;;0.90;0.90;;;2.20;99.90;;;;;;5030390;27;20031;-89
2023/01/17 08:58:09;;;;;;;0.90;0.90;;;2.50;99.90;;;;;;5023382;27;20258;-87
2023/01/17 09:00:35;;;;;;;0.90;0.90;;;2.60;99.90;;;;;;5044046;27;20492;-89
2023/01/17 09:03:00;;;;;;;0.90;0.90;;;2.60;99.90;;;;;;5026985;27;20521;-89
2023/01/17 09:05:29;;;;;;;0.90;0.90;;;2.70;99.90;;;;;;5032955;27;20963;-88
2023/01/17 09:07:55;;;;;;;0.90;0.90;;;2.70;99.90;;;;;;5003697;27;20049;-88
2023/01/17 09:10:22;;;;;;;0.90;0.90;;;2.80;99.90;;;;;;5032221;27;20047;-88
2023/01/17 09:12:48;;;;;;;0.90;0.90;;;2.90;99.90;;;;;;5028791;27;20085;-89
2023/01/17 09:15:19;;;;;;;0.90;0.90;;;2.90;99.90;;;;;;5022444;27;20052;-88
2023/01/17 09:17:46;;;;;;;0.90;0.90;;;3.10;99.90;;;;;;5025073;27;20055;-88
2023/01/17 09:20:12;;;;;;;0.80;0.80;;;3.00;99.90;;;;;;5023830;27;20042;-88
2023/01/17 09:22:38;;;;;;;0.80;0.80;;;3.10;99.90;;;;;;5027023;27;20100;-88
2023/01/17 09:25:05;;;;;;;0.80;0.80;;;3.20;99.90;;;;;;5030434;27;20490;-89
2023/01/17 09:27:31;;;;;;;0.80;0.80;;;3.20;99.90;;;;;;5034063;27;20051;-89
2023/01/17 09:29:57;;;;;;;0.80;0.80;;;3.30;99.90;;;;;;5022512;27;20106;-87
2023/01/17 09:32:23;;;;;;;0.90;0.90;;;3.30;99.90;;;;;;5025745;27;20436;-89
2023/01/17 09:34:49;;;;;;;0.80;0.80;;;3.40;99.90;;;;;;5054398;27;20535;-88
2023/01/17 09:37:15;;;;;;;0.80;0.80;;;3.40;99.90;;;;;;5015087;27;20050;-87
2023/01/17 09:39:40;;;;;;;0.80;0.80;;;3.30;99.90;;;;;;5050288;27;20054;-89
2023/01/17 09:42:26;;;;;;;0.80;0.80;;;3.50;99.90;;;;;;5019560;27;20055;-87
2023/01/17 09:44:53;;;;;;;0.80;0.80;;;3.60;99.90;;;;;;5056080;27;20363;-87
2023/01/17 09:47:42;;;;;;;0.80;0.80;;;3.60;99.90;;;;;;5040562;27;20045;-88
2023/01/17 09:50:25;;;;;;;0.80;0.80;;;3.60;99.90;;;;;;5037007;27;20050;-88
2023/01/17 09:53:00;;;;;;;0.80;0.80;;;3.70;99.90;;;;;;5056520;27;20043;-87
2023/01/17 09:55:33;;;;;;;0.80;0.80;;;3.80;99.90;;;;;;5049169;27;20043;-89
2023/01/17 09:58:08;;;;;;;0.80;0.80;;;3.90;99.90;;;;;;5030481;27;20810;-87
2023/01/17 10:00:40;;;;;;;0.80;0.80;;;4.00;99.90;;;;;;5049720;27;20121;-87
2023/01/17 10:03:51;;;;;;;0.80;0.80;;;4.00;99.90;;;;;;5050727;27;20183;-88
2023/01/17 10:06:28;;;;;;;0.80;0.80;;;4.00;99.90;;;;;;5033836;27;20956;-86
2023/01/17 10:09:12;;;;;;;0.80;0.80;;;4.10;99.90;;;;;;5044173;27;20699;-87
2023/01/17 10:11:47;;;;;;;;;;;4.10;99.90;;;;;;5034422;27;20853;-87
2023/01/17 10:14:41;;;;;;;0.80;0.80;;;4.00;99.90;;;;;;5042633;27;19981;-87
2023/01/17 10:17:15;;;;;;;0.80;0.80;;;4.10;99.90;;;;;;5034722;27;20049;-87
2023/01/17 10:20:09;;;;;;;0.80;0.80;;;4.20;99.90;;;;;;5046080;27;20054;-87
2023/01/17 10:23:05;;;;;;;0.80;0.80;;;4.20;99.90;;;;;;5036403;27;20049;-87
2023/01/17 10:26:23;;;;;;;0.80;0.80;;;4.20;99.90;;;;;;5048666;27;20495;-88
2023/01/17 10:28:51;;;;;;;0.80;0.80;;;4.20;99.90;;;;;;5011790;27;20448;-87
2023/01/17 10:31:30;;;;;;;0.77;0.77;;;4.00;99.90;;;;;;5051258;27;20058;-86
2023/01/17 10:34:05;;;;;;;0.80;0.80;;;4.20;99.90;;;;;;5033934;27;20129;-87
2023/01/17 10:36:38;;;;;;;0.70;0.70;;;4.10;99.90;;;;;;5048711;27;20135;-87
2023/01/17 10:39:21;;;;;;;0.80;0.80;;;4.20;99.90;;;;;;5046249;27;20054;-86
2023/01/17 10:41:59;;;;;;;0.80;0.80;;;4.20;99.90;;;;;;5034873;27;20143;-86
2023/01/17 10:44:37;;;;;;;0.80;0.80;;;4.40;99.90;;;;;;5028224;27;20130;-86
2023/01/17 10:47:20;;;;;;;0.80;0.80;;;4.50;99.90;;;;;;5045692;27;20041;-86
2023/01/17 10:49:51;;;;;;;0.70;0.70;;;4.40;99.90;;;;;;5045143;27;20046;-88
2023/01/17 10:52:20;;;;;;;0.80;0.80;;;4.40;99.90;;;;;;5026506;27;20779;-87
2023/01/17 10:55:16;;;;;;;0.70;0.70;;;4.30;99.90;;;;;;5024923;27;20476;-87
2023/01/17 10:57:44;;;;;;;0.80;0.80;;;4.40;99.90;;;;;;5049678;27;20789;-86
2023/01/17 11:00:42;;;;;;;0.80;0.80;;;4.50;99.90;;;;;;5047445;27;20591;-87
2023/01/17 11:03:14;;;;;;;0.80;0.80;;;4.50;99.90;;;;;;5040834;27;20091;-87
2023/01/17 11:05:41;;;;;;;0.70;0.70;;;4.50;99.90;;;;;;5041852;27;20043;-87
2023/01/17 11:08:13;;;;;;;0.80;0.80;;;4.40;99.90;;;;;;5042797;27;20039;-86
2023/01/17 11:10:46;;;;;;;0.75;0.75;;;4.40;99.90;;;;;;5045002;27;20078;-86
2023/01/17 11:13:34;;;;;;;0.80;0.80;;;4.50;99.90;;;;;;5045297;27;20103;-85
2023/01/17 11:16:09;;;;;;;0.80;0.80;;;4.40;99.90;;;;;;5032963;27;20551;-86
2023/01/17 11:18:39;;;;;;;0.70;0.70;;;4.70;99.90;;;;;;5022338;27;20151;-86
2023/01/17 11:21:25;;;;;;;0.80;0.80;;;4.70;99.90;;;;;;5040539;27;20655;-85
2023/01/17 11:24:09;;;;;;;0.80;0.80;;;4.70;99.90;;;;;;5043972;27;20059;-87
2023/01/17 11:26:37;;;;;;;0.73;0.73;;;4.70;99.90;;;;;;5041020;27;20550;-86
2023/01/17 11:29:26;;;;;;;0.70;0.70;;;4.80;99.90;;;;;;5038929;27;20440;-86
2023/01/17 11:31:54;;;;;;;0.70;0.70;;;4.90;99.90;;;;;;5033220;27;20050;-86
2023/01/17 11:34:25;;;;;;;0.70;0.70;;;4.90;99.90;;;;;;5036664;27;20058;-86
2023/01/17 11:37:13;;;;;;;0.80;0.80;;;5.00;99.90;;;;;;5037520;27;20051;-86
2023/01/17 11:39:38;;;;;;;0.70;0.70;;;5.00;99.90;;;;;;5032117;27;21101;-86
2023/01/17 11:42:25;;;;;;;0.80;0.80;;;5.10;99.90;;;;;;5024139;27;20047;-86
2023/01/17 11:44:54;;;;;;;0.80;0.80;;;5.10;99.90;;;;;;5040804;27;20062;-86
2023/01/17 11:47:20;;;;;;;0.70;0.70;;;5.10;99.90;;;;;;5008034;27;22193;-86
2023/01/17 11:49:47;;;;;;;0.80;0.80;;;5.10;99.90;;;;;;5037119;27;20058;-85
2023/01/17 11:52:36;;;;;;;0.70;0.70;;;5.10;99.90;;;;;;5053748;27;20043;-86
2023/01/17 11:55:02;;;;;;;0.70;0.70;;;5.10;99.90;;;;;;5051221;27;20552;-86
2023/01/17 11:57:33;;;;;;;0.70;0.70;;;5.10;99.90;;;;;;5006942;27;20065;-86
2023/01/17 12:00:18;;;;;;;0.77;0.77;;;5.30;99.90;;;;;;5025265;27;20099;-87
2023/01/17 12:03:02;;;;;;;0.70;0.70;;;5.40;99.90;;;;;;5029403;27;20094;-87
2023/01/17 12:05:46;;;;;;;0.70;0.70;;;5.50;99.90;;;;;;5050701;27;20814;-88
2023/01/17 12:08:22;;;;;;;0.70;0.70;;;5.60;99.90;;;;;;5045681;27;20054;-85
2023/01/17 12:11:03;;;;;;;0.80;0.80;;;5.60;99.90;;;;;;5051858;27;20112;-86
2023/01/17 12:17:02;;;;;;;0.70;0.70;;;5.60;99.90;;;;;;5039626;27;20550;-86
2023/01/17 12:20:03;;;;;;;0.70;0.70;;;5.70;99.90;;;;;;5044727;27;20758;-86
2023/01/17 12:22:42;;;;;;;0.70;0.70;;;5.80;99.90;;;;;;5012949;27;20787;-87
2023/01/17 12:25:14;;;;;;;0.70;0.70;;;5.80;99.90;;;;;;5026929;27;20426;-86
2023/01/17 12:27:59;;;;;;;0.70;0.70;;;5.80;99.90;;;;;;5042434;27;20082;-87
2023/01/17 12:30:54;;;;;;;0.80;0.80;;;5.80;99.90;;;;;;5027032;27;20084;-86
2023/01/17 12:33:51;;;;;;;0.70;0.70;;;5.90;99.90;;;;;;5038893;27;20519;-87
2023/01/17 12:37:11;;;;;;;0.80;0.80;;;5.90;99.90;;;;;;5035927;27;20611;-86
2023/01/17 12:39:40;;;;;;;0.70;0.70;;;6.00;99.90;;;;;;4952980;28;20175;-87
2023/01/17 12:42:18;;;;;;;0.80;0.80;;;5.90;99.90;;;;;;5010393;27;20071;-87
2023/01/17 12:45:03;;;;;;;0.70;0.70;;;6.00;99.90;;;;;;5044456;27;20051;-87
2023/01/17 12:47:32;;;;;;;0.80;0.80;;;5.90;99.90;;;;;;5018854;27;20698;-85
2023/01/17 12:50:05;;;;;;;0.75;0.75;;;6.00;99.90;;;;;;5026640;27;20070;-86
2023/01/17 12:52:34;;;;;;;0.70;0.70;;;6.00;99.90;;;;;;5025489;27;20571;-86
2023/01/17 12:55:09;;;;;;;0.70;0.70;;;5.90;99.90;;;;;;5036062;27;20221;-87
2023/01/17 12:57:43;;;;;;;0.70;0.70;;;5.90;99.90;;;;;;5062939;27;20157;-86
2023/01/17 13:00:21;;;;;;;0.70;0.70;;;6.00;99.90;;;;;;5048935;27;20107;-86
2023/01/17 13:03:06;;;;;;;0.70;0.70;;;6.00;99.90;;;;;;5039236;27;20568;-87
2023/01/17 13:05:37;;;;;;;0.70;0.70;;;6.00;99.90;;;;;;5042346;27;21159;-86
2023/01/17 13:08:18;;;;;;;0.75;0.75;;;6.00;99.90;;;;;;5043886;27;20214;-87
2023/01/17 13:10:54;;;;;;;0.70;0.70;;;5.90;99.90;;;;;;5026492;27;20065;-87
2023/01/17 13:13:22;;;;;;;0.80;0.80;;;5.90;99.90;;;;;;5036379;27;20043;-86
2023/01/17 13:15:56;;;;;;;0.73;0.73;;;6.00;99.90;;;;;;5039394;27;20528;-85
2023/01/17 13:18:25;;;;;;;0.80;0.80;;;6.10;99.90;;;;;;5043008;27;20039;-86
2023/01/17 13:21:12;;;;;;;0.70;0.70;;;6.00;99.90;;;;;;5045267;27;20991;-87
2023/01/17 13:24:02;;;;;;;0.70;0.70;;;5.90;99.90;;;;;;5044953;27;20643;-84
2023/01/17 13:26:50;;;;;;;0.75;0.75;;;6.00;99.90;;;;;;5041772;27;20488;-87
2023/01/17 13:29:33;;;;;;;0.70;0.70;;;6.00;99.90;;;;;;5028792;27;20296;-87
2023/01/17 13:32:07;;;;;;;0.70;0.70;;;5.90;99.90;;;;;;5041700;27;20097;-89
2023/01/17 13:34:56;;;;;;;0.80;0.80;;;5.90;99.90;;;;;;5042004;27;20470;-86
2023/01/17 13:37:45;;;;;;;0.70;0.70;;;5.90;99.90;;;;;;5018888;27;20047;-86
2023/01/17 13:40:47;;;;;;;0.80;0.80;;;5.80;99.90;;;;;;5053040;27;20591;-88
2023/01/17 13:43:34;;;;;;;0.80;0.80;;;5.70;99.90;;;;;;5026009;27;20058;-88
2023/01/17 13:46:02;;;;;;;0.70;0.70;;;5.70;99.90;;;;;;5045948;27;20081;-86
2023/01/17 13:48:31;;;;;;;0.70;0.70;;;5.60;99.90;;;;;;5027927;27;20756;-86
2023/01/17 13:51:04;;;;;;;0.70;0.70;;;5.70;99.90;;;;;;5034130;27;20047;-88
2023/01/17 13:53:33;;;;;;;0.70;0.70;;;5.60;99.90;;;;;;5036986;27;20122;-87
2023/01/17 13:56:18;;;;;;;0.70;0.70;;;5.70;99.90;;;;;;5031506;27;20045;-86
2023/01/17 13:58:53;;;;;;;0.70;0.70;;;5.70;99.90;;;;;;5049059;27;20469;-86
2023/01/17 14:01:22;;;;;;;0.80;0.80;;;5.70;99.90;;;;;;5050094;27;20047;-86
2023/01/17 14:03:51;;;;;;;0.70;0.70;;;5.50;99.90;;;;;;5032897;27;20118;-87
2023/01/17 14:06:31;;;;;;;0.70;0.70;;;5.60;99.90;;;;;;5036458;27;20031;-87
2023/01/17 14:09:27;;;;;;;0.80;0.80;;;5.60;99.90;;;;;;5033317;27;20999;-86
2023/01/17 14:12:04;;;;;;;0.70;0.70;;;5.60;99.90;;;;;;5051292;27;20095;-86
2023/01/17 14:14:38;;;;;;;0.70;0.70;;;5.50;99.90;;;;;;5050579;27;20047;-86
2023/01/17 14:17:19;;;;;;;0.70;0.70;;;5.60;99.90;;;;;;5029239;27;20044;-86
2023/01/17 14:19:50;;;;;;;0.70;0.70;;;5.50;99.90;;;;;;5053473;27;20051;-86
2023/01/17 14:22:18;;;;;;;0.70;0.70;;;5.50;99.90;;;;;;5049872;27;20768;-87
2023/01/17 14:25:08;;;;;;;0.70;0.70;;;5.40;99.90;;;;;;5028838;27;20126;-85
2023/01/17 14:27:44;;;;;;;0.80;0.80;;;5.40;99.90;;;;;;5043034;27;20054;-87
2023/01/17 14:30:17;;;;;;;0.75;0.75;;;5.30;99.90;;;;;;5026595;27;20113;-88
2023/01/17 14:32:59;;;;;;;0.70;0.70;;;5.30;99.90;;;;;;5049894;27;20099;-85
2023/01/17 14:35:31;;;;;;;0.80;0.80;;;5.20;99.90;;;;;;5048528;27;20462;-86
2023/01/17 14:38:01;;;;;;;0.80;0.80;;;5.20;99.90;;;;;;5051123;27;20037;-86
2023/01/17 14:40:29;;;;;;;0.70;0.70;;;5.20;99.90;;;;;;5031616;27;20058;-86
2023/01/17 14:43:06;;;;;;;0.70;0.70;;;5.10;99.90;;;;;;5051019;27;20046;-86
2023/01/17 14:45:36;;;;;;;0.80;0.80;;;5.10;99.90;;;;;;5051958;27;21185;-87
2023/01/17 14:48:05;;;;;;;0.80;0.80;;;5.00;99.90;;;;;;5047127;27;20050;-87
2023/01/17 14:50:39;;;;;;;0.80;0.80;;;5.00;99.90;;;;;;5045093;27;20043;-86
2023/01/17 14:53:11;;;;;;;0.70;0.70;;;4.90;99.90;;;;;;5065247;27;20043;-87